sensor_id;sensor_type;location;lat;lon;timestamp;P1;durP1;ratioP1;P2;durP2;ratioP2
15869;SDS011;8034;51.442;-0.522;2022-08-21T14:01:55;11.55;;;10.75;;
15869;SDS011;8034;51.442;-0.522;2022-08-21T14:04:32;11.55;;;10.60;;
15869;SDS011;8034;51.442;-0.522;2022-08-21T14:07:31;11.63;;;10.70;;
15869;SDS011;8034;51.442;-0.522;2022-08-21T14:10:07;12.47;;;11.30;;
15869;SDS011;8034;51.442;-0.522;2022-08-21T14:12:41;15.30;;;11.45;;
15869;SDS011;8034;51.442;-0.522;2022-08-21T14:15:15;12.10;;;11.10;;
15869;SDS011;8034;51.442;-0.522;2022-08-21T14:17:47;13.70;;;11.83;;
15869;SDS011;8034;51.442;-0.522;2022-08-21T14:20:26;10.80;;;10.20;;
15869;SDS011;8034;51.442;-0.522;2022-08-21T14:22:59;11.78;;;10.63;;
15869;SDS011;8034;51.442;-0.522;2022-08-21T14:25:35;11.73;;;10.93;;
15869;SDS011;8034;51.442;-0.522;2022-08-21T14:28:11;11.70;;;10.90;;
15869;SDS011;8034;51.442;-0.522;2022-08-21T14:30:49;12.05;;;10.85;;
15869;SDS011;8034;51.442;-0.522;2022-08-21T14:33:23;12.25;;;10.82;;
15869;SDS011;8034;51.442;-0.522;2022-08-21T14:35:56;11.45;;;10.80;;
15869;SDS011;8034;51.442;-0.522;2022-08-21T14:38:28;11.88;;;11.03;;
15869;SDS011;8034;51.442;-0.522;2022-08-21T14:41:00;11.68;;;10.88;;
15869;SDS011;8034;51.442;-0.522;2022-08-21T14:43:34;12.33;;;11.38;;
15869;SDS011;8034;51.442;-0.522;2022-08-21T14:46:05;12.15;;;11.25;;
15869;SDS011;8034;51.442;-0.522;2022-08-21T14:48:36;11.88;;;11.10;;
15869;SDS011;8034;51.442;-0.522;2022-08-21T14:51:07;11.53;;;10.70;;
15869;SDS011;8034;51.442;-0.522;2022-08-21T14:53:38;11.83;;;11.10;;
15869;SDS011;8034;51.442;-0.522;2022-08-21T14:56:38;11.38;;;10.45;;
15869;SDS011;8034;51.442;-0.522;2022-08-21T14:59:09;10.95;;;10.20;;
15869;SDS011;8034;51.442;-0.522;2022-08-21T15:01:40;20.52;;;11.78;;
15869;SDS011;8034;51.442;-0.522;2022-08-21T15:04:41;11.60;;;10.80;;
15869;SDS011;8034;51.442;-0.522;2022-08-21T15:07:14;17.55;;;11.83;;
15869;SDS011;8034;51.442;-0.522;2022-08-21T15:09:47;22.20;;;11.95;;
15869;SDS011;8034;51.442;-0.522;2022-08-21T15:12:18;11.63;;;10.93;;
15869;SDS011;8034;51.442;-0.522;2022-08-21T15:14:49;13.20;;;12.30;;
15869;SDS011;8034;51.442;-0.522;2022-08-21T15:17:21;16.80;;;15.53;;
15869;SDS011;8034;51.442;-0.522;2022-08-21T15:19:54;13.05;;;11.85;;
15869;SDS011;8034;51.442;-0.522;2022-08-21T15:22:25;12.13;;;10.95;;
15869;SDS011;8034;51.442;-0.522;2022-08-21T15:24:56;12.10;;;11.05;;
15869;SDS011;8034;51.442;-0.522;2022-08-21T15:27:28;11.50;;;10.70;;
15869;SDS011;8034;51.442;-0.522;2022-08-21T15:29:59;12.50;;;11.30;;
15869;SDS011;8034;51.442;-0.522;2022-08-21T15:32:31;12.07;;;11.08;;
15869;SDS011;8034;51.442;-0.522;2022-08-21T15:35:02;12.18;;;10.98;;
15869;SDS011;8034;51.442;-0.522;2022-08-21T15:37:33;11.80;;;11.08;;
15869;SDS011;8034;51.442;-0.522;2022-08-21T15:40:06;11.48;;;10.78;;
15869;SDS011;8034;51.442;-0.522;2022-08-21T15:42:38;11.48;;;10.65;;
15869;SDS011;8034;51.442;-0.522;2022-08-21T15:45:10;11.63;;;10.75;;
15869;SDS011;8034;51.442;-0.522;2022-08-21T15:47:43;11.80;;;10.80;;
15869;SDS011;8034;51.442;-0.522;2022-08-21T15:50:16;11.63;;;10.95;;
15869;SDS011;8034;51.442;-0.522;2022-08-21T15:53:15;12.85;;;11.73;;
15869;SDS011;8034;51.442;-0.522;2022-08-21T15:55:46;11.85;;;10.88;;
15869;SDS011;8034;51.442;-0.522;2022-08-21T15:58:17;11.48;;;10.72;;
15869;SDS011;8034;51.442;-0.522;2022-08-21T16:00:49;11.60;;;10.90;;
15869;SDS011;8034;51.442;-0.522;2022-08-21T16:03:19;11.08;;;10.38;;
15869;SDS011;8034;51.442;-0.522;2022-08-21T16:05:51;11.57;;;10.88;;
15869;SDS011;8034;51.442;-0.522;2022-08-21T16:08:24;11.90;;;11.00;;
15869;SDS011;8034;51.442;-0.522;2022-08-21T16:10:54;12.00;;;11.12;;
15869;SDS011;8034;51.442;-0.522;2022-08-21T16:13:26;12.30;;;11.45;;
15869;SDS011;8034;51.442;-0.522;2022-08-21T16:15:59;12.33;;;11.33;;
15869;SDS011;8034;51.442;-0.522;2022-08-21T16:18:30;12.40;;;11.45;;
15869;SDS011;8034;51.442;-0.522;2022-08-21T16:21:01;11.57;;;10.78;;
15869;SDS011;8034;51.442;-0.522;2022-08-21T16:23:34;12.00;;;11.00;;
15869;SDS011;8034;51.442;-0.522;2022-08-21T16:26:06;11.50;;;10.70;;
15869;SDS011;8034;51.442;-0.522;2022-08-21T16:28:38;11.68;;;10.98;;
15869;SDS011;8034;51.442;-0.522;2022-08-21T16:31:10;12.03;;;11.12;;
15869;SDS011;8034;51.442;-0.522;2022-08-21T16:33:42;12.45;;;11.20;;
15869;SDS011;8034;51.442;-0.522;2022-08-21T16:36:15;13.80;;;11.03;;
15869;SDS011;8034;51.442;-0.522;2022-08-21T16:38:45;11.83;;;10.90;;
15869;SDS011;8034;51.442;-0.522;2022-08-21T16:41:17;12.25;;;11.18;;
15869;SDS011;8034;51.442;-0.522;2022-08-21T16:43:50;12.07;;;10.95;;
15869;SDS011;8034;51.442;-0.522;2022-08-21T16:46:21;11.30;;;10.50;;
15869;SDS011;8034;51.442;-0.522;2022-08-21T16:48:52;11.53;;;10.82;;
15869;SDS011;8034;51.442;-0.522;2022-08-21T16:51:23;12.13;;;11.22;;
15869;SDS011;8034;51.442;-0.522;2022-08-21T16:53:53;11.80;;;11.00;;
15869;SDS011;8034;51.442;-0.522;2022-08-21T16:56:24;11.50;;;10.60;;
15869;SDS011;8034;51.442;-0.522;2022-08-21T16:58:55;11.57;;;10.65;;
15869;SDS011;8034;51.442;-0.522;2022-08-21T17:01:27;12.98;;;11.68;;
15869;SDS011;8034;51.442;-0.522;2022-08-21T17:04:02;11.90;;;11.10;;
15869;SDS011;8034;51.442;-0.522;2022-08-21T17:06:33;11.73;;;10.82;;
15869;SDS011;8034;51.442;-0.522;2022-08-21T17:09:03;11.45;;;10.72;;
15869;SDS011;8034;51.442;-0.522;2022-08-21T17:14:31;11.97;;;11.18;;
15869;SDS011;8034;51.442;-0.522;2022-08-21T17:17:03;11.95;;;10.85;;
15869;SDS011;8034;51.442;-0.522;2022-08-21T17:19:37;10.98;;;10.28;;
15869;SDS011;8034;51.442;-0.522;2022-08-21T17:22:08;11.90;;;10.88;;
15869;SDS011;8034;51.442;-0.522;2022-08-21T17:24:39;10.70;;;10.00;;
15869;SDS011;8034;51.442;-0.522;2022-08-21T17:27:10;11.20;;;10.40;;
15869;SDS011;8034;51.442;-0.522;2022-08-21T17:29:41;12.47;;;11.48;;
15869;SDS011;8034;51.442;-0.522;2022-08-21T17:32:12;11.20;;;10.40;;
15869;SDS011;8034;51.442;-0.522;2022-08-21T17:34:45;11.15;;;10.32;;
15869;SDS011;8034;51.442;-0.522;2022-08-21T17:37:19;12.20;;;11.05;;
15869;SDS011;8034;51.442;-0.522;2022-08-21T17:39:50;11.70;;;10.70;;
15869;SDS011;8034;51.442;-0.522;2022-08-21T17:42:21;11.30;;;10.50;;
15869;SDS011;8034;51.442;-0.522;2022-08-21T17:44:52;11.80;;;10.80;;
15869;SDS011;8034;51.442;-0.522;2022-08-21T17:47:24;11.35;;;10.70;;
15869;SDS011;8034;51.442;-0.522;2022-08-21T17:49:55;12.00;;;10.90;;
15869;SDS011;8034;51.442;-0.522;2022-08-21T17:52:26;11.05;;;10.25;;
15869;SDS011;8034;51.442;-0.522;2022-08-21T17:54:57;11.78;;;11.05;;
15869;SDS011;8034;51.442;-0.522;2022-08-21T17:57:57;12.33;;;11.48;;
15869;SDS011;8034;51.442;-0.522;2022-08-21T18:00:30;12.43;;;11.40;;
15869;SDS011;8034;51.442;-0.522;2022-08-21T18:03:02;12.13;;;11.33;;
15869;SDS011;8034;51.442;-0.522;2022-08-21T18:05:39;12.07;;;11.18;;
15869;SDS011;8034;51.442;-0.522;2022-08-21T18:08:10;12.20;;;11.50;;
15869;SDS011;8034;51.442;-0.522;2022-08-21T18:10:43;12.68;;;11.55;;
15869;SDS011;8034;51.442;-0.522;2022-08-21T18:13:16;12.23;;;11.12;;
15869;SDS011;8034;51.442;-0.522;2022-08-21T18:15:49;10.75;;;10.10;;
15869;SDS011;8034;51.442;-0.522;2022-08-21T18:18:21;10.88;;;10.00;;
15869;SDS011;8034;51.442;-0.522;2022-08-21T18:20:53;14.78;;;11.48;;
15869;SDS011;8034;51.442;-0.522;2022-08-21T18:23:24;12.80;;;11.18;;
15869;SDS011;8034;51.442;-0.522;2022-08-21T18:25:55;12.63;;;11.55;;
15869;SDS011;8034;51.442;-0.522;2022-08-21T18:28:26;11.60;;;10.82;;
15869;SDS011;8034;51.442;-0.522;2022-08-21T18:30:58;12.00;;;11.12;;
15869;SDS011;8034;51.442;-0.522;2022-08-21T18:33:29;12.18;;;11.30;;
15869;SDS011;8034;51.442;-0.522;2022-08-21T18:36:00;12.70;;;11.80;;
15869;SDS011;8034;51.442;-0.522;2022-08-21T18:38:31;12.78;;;11.48;;
15869;SDS011;8034;51.442;-0.522;2022-08-21T18:41:02;11.68;;;10.93;;
15869;SDS011;8034;51.442;-0.522;2022-08-21T18:43:33;11.53;;;10.53;;
15869;SDS011;8034;51.442;-0.522;2022-08-21T18:46:04;11.75;;;10.82;;
15869;SDS011;8034;51.442;-0.522;2022-08-21T18:48:35;11.63;;;10.72;;
15869;SDS011;8034;51.442;-0.522;2022-08-21T18:51:06;12.15;;;11.43;;
15869;SDS011;8034;51.442;-0.522;2022-08-21T18:53:38;13.03;;;11.78;;
15869;SDS011;8034;51.442;-0.522;2022-08-21T18:56:09;13.05;;;12.05;;
15869;SDS011;8034;51.442;-0.522;2022-08-21T18:59:10;11.70;;;10.75;;
15869;SDS011;8034;51.442;-0.522;2022-08-21T19:01:42;13.08;;;11.97;;
15869;SDS011;8034;51.442;-0.522;2022-08-21T19:04:13;13.25;;;12.25;;
15869;SDS011;8034;51.442;-0.522;2022-08-21T19:06:45;13.68;;;12.45;;
15869;SDS011;8034;51.442;-0.522;2022-08-21T19:09:16;13.10;;;12.07;;
15869;SDS011;8034;51.442;-0.522;2022-08-21T19:11:47;12.95;;;12.05;;
15869;SDS011;8034;51.442;-0.522;2022-08-21T19:14:18;13.00;;;12.00;;
15869;SDS011;8034;51.442;-0.522;2022-08-21T19:16:48;12.55;;;11.57;;
15869;SDS011;8034;51.442;-0.522;2022-08-21T19:19:19;12.95;;;11.85;;
15869;SDS011;8034;51.442;-0.522;2022-08-21T19:21:50;13.48;;;12.40;;
15869;SDS011;8034;51.442;-0.522;2022-08-21T19:24:21;13.38;;;12.35;;
15869;SDS011;8034;51.442;-0.522;2022-08-21T19:26:51;13.85;;;12.60;;
15869;SDS011;8034;51.442;-0.522;2022-08-21T19:29:22;13.70;;;12.70;;
15869;SDS011;8034;51.442;-0.522;2022-08-21T19:31:54;13.05;;;12.20;;
15869;SDS011;8034;51.442;-0.522;2022-08-21T19:34:25;13.87;;;12.93;;
15869;SDS011;8034;51.442;-0.522;2022-08-21T19:36:56;13.88;;;12.88;;
15869;SDS011;8034;51.442;-0.522;2022-08-21T19:39:27;15.18;;;13.90;;
15869;SDS011;8034;51.442;-0.522;2022-08-21T19:42:00;15.55;;;14.20;;
15869;SDS011;8034;51.442;-0.522;2022-08-21T19:44:30;13.90;;;12.80;;
15869;SDS011;8034;51.442;-0.522;2022-08-21T19:47:03;13.05;;;12.05;;
15869;SDS011;8034;51.442;-0.522;2022-08-21T19:49:37;13.05;;;11.93;;
15869;SDS011;8034;51.442;-0.522;2022-08-21T19:52:10;13.35;;;12.47;;
15869;SDS011;8034;51.442;-0.522;2022-08-21T19:55:08;13.85;;;12.73;;
15869;SDS011;8034;51.442;-0.522;2022-08-21T19:57:40;13.72;;;12.58;;
15869;SDS011;8034;51.442;-0.522;2022-08-21T20:00:15;14.53;;;13.40;;
15869;SDS011;8034;51.442;-0.522;2022-08-21T20:02:46;14.93;;;13.98;;
15869;SDS011;8034;51.442;-0.522;2022-08-21T20:05:17;14.13;;;13.00;;
15869;SDS011;8034;51.442;-0.522;2022-08-21T20:07:50;15.03;;;13.78;;
15869;SDS011;8034;51.442;-0.522;2022-08-21T20:10:21;15.13;;;14.13;;
15869;SDS011;8034;51.442;-0.522;2022-08-21T20:12:51;17.07;;;15.90;;
15869;SDS011;8034;51.442;-0.522;2022-08-21T20:15:22;16.73;;;15.72;;
15869;SDS011;8034;51.442;-0.522;2022-08-21T20:17:53;16.93;;;16.00;;
15869;SDS011;8034;51.442;-0.522;2022-08-21T20:20:23;17.93;;;16.63;;
15869;SDS011;8034;51.442;-0.522;2022-08-21T20:22:54;19.37;;;17.87;;
15869;SDS011;8034;51.442;-0.522;2022-08-21T20:25:25;17.70;;;16.60;;
15869;SDS011;8034;51.442;-0.522;2022-08-21T20:27:57;18.97;;;17.67;;
15869;SDS011;8034;51.442;-0.522;2022-08-21T20:30:28;19.30;;;18.07;;
15869;SDS011;8034;51.442;-0.522;2022-08-21T20:32:59;18.53;;;17.43;;
15869;SDS011;8034;51.442;-0.522;2022-08-21T20:35:29;20.03;;;18.30;;
15869;SDS011;8034;51.442;-0.522;2022-08-21T20:38:00;20.50;;;19.00;;
15869;SDS011;8034;51.442;-0.522;2022-08-21T20:40:30;22.17;;;20.67;;
15869;SDS011;8034;51.442;-0.522;2022-08-21T20:43:02;21.00;;;19.70;;
15869;SDS011;8034;51.442;-0.522;2022-08-21T20:45:33;21.30;;;19.80;;
15869;SDS011;8034;51.442;-0.522;2022-08-21T20:48:08;21.87;;;20.57;;
15869;SDS011;8034;51.442;-0.522;2022-08-21T20:50:41;24.63;;;23.00;;
15869;SDS011;8034;51.442;-0.522;2022-08-21T20:53:58;25.30;;;23.80;;
15869;SDS011;8034;51.442;-0.522;2022-08-21T20:56:33;27.17;;;25.50;;
15869;SDS011;8034;51.442;-0.522;2022-08-21T20:59:38;25.63;;;23.90;;
15869;SDS011;8034;51.442;-0.522;2022-08-21T21:02:16;26.30;;;24.40;;
15869;SDS011;8034;51.442;-0.522;2022-08-21T21:04:59;27.27;;;25.40;;
15869;SDS011;8034;51.442;-0.522;2022-08-21T21:07:33;28.60;;;26.80;;
15869;SDS011;8034;51.442;-0.522;2022-08-21T21:10:10;29.60;;;27.70;;
15869;SDS011;8034;51.442;-0.522;2022-08-21T21:12:41;28.33;;;26.63;;
15869;SDS011;8034;51.442;-0.522;2022-08-21T21:15:16;31.30;;;29.13;;
15869;SDS011;8034;51.442;-0.522;2022-08-21T21:17:49;29.87;;;27.87;;
15869;SDS011;8034;51.442;-0.522;2022-08-21T21:20:24;30.53;;;28.40;;
15869;SDS011;8034;51.442;-0.522;2022-08-21T21:22:56;30.77;;;28.57;;
15869;SDS011;8034;51.442;-0.522;2022-08-21T21:25:31;29.13;;;27.23;;
15869;SDS011;8034;51.442;-0.522;2022-08-21T21:28:05;29.33;;;27.53;;
15869;SDS011;8034;51.442;-0.522;2022-08-21T21:30:37;29.73;;;27.93;;
15869;SDS011;8034;51.442;-0.522;2022-08-21T21:33:10;29.30;;;27.40;;
15869;SDS011;8034;51.442;-0.522;2022-08-21T21:35:43;30.50;;;28.43;;
15869;SDS011;8034;51.442;-0.522;2022-08-21T21:38:17;31.87;;;29.87;;
15869;SDS011;8034;51.442;-0.522;2022-08-21T21:40:54;40.97;;;38.37;;
15869;SDS011;8034;51.442;-0.522;2022-08-21T21:43:32;42.77;;;40.07;;
15869;SDS011;8034;51.442;-0.522;2022-08-21T21:46:23;43.40;;;40.33;;
15869;SDS011;8034;51.442;-0.522;2022-08-21T21:48:59;41.63;;;38.83;;
15869;SDS011;8034;51.442;-0.522;2022-08-21T21:51:49;42.83;;;40.03;;
15869;SDS011;8034;51.442;-0.522;2022-08-21T21:55:07;41.80;;;39.27;;
15869;SDS011;8034;51.442;-0.522;2022-08-21T21:57:49;40.67;;;38.10;;
15869;SDS011;8034;51.442;-0.522;2022-08-21T22:00:24;41.97;;;39.23;;
15869;SDS011;8034;51.442;-0.522;2022-08-21T22:03:41;44.90;;;42.20;;
15869;SDS011;8034;51.442;-0.522;2022-08-21T22:06:14;48.80;;;45.77;;
15869;SDS011;8034;51.442;-0.522;2022-08-21T22:08:48;48.93;;;45.90;;
15869;SDS011;8034;51.442;-0.522;2022-08-21T22:11:22;51.07;;;47.93;;
15869;SDS011;8034;51.442;-0.522;2022-08-21T22:13:55;61.87;;;58.07;;
15869;SDS011;8034;51.442;-0.522;2022-08-21T22:16:30;65.57;;;61.43;;
15869;SDS011;8034;51.442;-0.522;2022-08-21T22:19:44;68.40;;;64.30;;
15869;SDS011;8034;51.442;-0.522;2022-08-21T22:22:18;69.10;;;64.83;;
15869;SDS011;8034;51.442;-0.522;2022-08-21T22:25:18;71.37;;;67.07;;
15869;SDS011;8034;51.442;-0.522;2022-08-21T22:27:52;72.50;;;68.00;;
15869;SDS011;8034;51.442;-0.522;2022-08-21T22:30:54;71.93;;;67.47;;
15869;SDS011;8034;51.442;-0.522;2022-08-21T22:33:28;75.13;;;70.63;;
15869;SDS011;8034;51.442;-0.522;2022-08-21T22:35:58;70.77;;;66.33;;
15869;SDS011;8034;51.442;-0.522;2022-08-21T22:38:31;71.33;;;66.47;;
15869;SDS011;8034;51.442;-0.522;2022-08-21T22:41:11;73.03;;;68.43;;
15869;SDS011;8034;51.442;-0.522;2022-08-21T22:43:54;75.27;;;70.53;;
15869;SDS011;8034;51.442;-0.522;2022-08-21T22:46:29;72.60;;;67.90;;
15869;SDS011;8034;51.442;-0.522;2022-08-21T22:49:30;70.50;;;65.87;;
15869;SDS011;8034;51.442;-0.522;2022-08-21T22:52:07;72.90;;;68.40;;
15869;SDS011;8034;51.442;-0.522;2022-08-21T22:55:16;72.17;;;67.57;;
15869;SDS011;8034;51.442;-0.522;2022-08-21T22:57:59;71.83;;;67.27;;
15869;SDS011;8034;51.442;-0.522;2022-08-21T23:00:39;70.63;;;66.23;;
15869;SDS011;8034;51.442;-0.522;2022-08-21T23:03:17;71.87;;;67.20;;
15869;SDS011;8034;51.442;-0.522;2022-08-21T23:05:54;72.30;;;67.60;;
15869;SDS011;8034;51.442;-0.522;2022-08-21T23:08:29;73.03;;;68.43;;
15869;SDS011;8034;51.442;-0.522;2022-08-21T23:11:33;73.60;;;68.73;;
15869;SDS011;8034;51.442;-0.522;2022-08-21T23:14:06;69.53;;;65.00;;
15869;SDS011;8034;51.442;-0.522;2022-08-21T23:16:39;73.20;;;68.33;;
15869;SDS011;8034;51.442;-0.522;2022-08-21T23:19:13;75.77;;;70.97;;
15869;SDS011;8034;51.442;-0.522;2022-08-21T23:21:49;71.97;;;67.57;;
15869;SDS011;8034;51.442;-0.522;2022-08-21T23:24:35;73.43;;;68.63;;
15869;SDS011;8034;51.442;-0.522;2022-08-21T23:27:18;71.53;;;66.87;;
15869;SDS011;8034;51.442;-0.522;2022-08-21T23:29:54;71.97;;;67.50;;
15869;SDS011;8034;51.442;-0.522;2022-08-21T23:32:31;70.97;;;66.67;;
15869;SDS011;8034;51.442;-0.522;2022-08-21T23:35:09;71.50;;;67.00;;
15869;SDS011;8034;51.442;-0.522;2022-08-21T23:37:41;73.13;;;68.50;;
15869;SDS011;8034;51.442;-0.522;2022-08-21T23:40:35;73.23;;;68.77;;
15869;SDS011;8034;51.442;-0.522;2022-08-21T23:43:09;73.60;;;68.90;;
15869;SDS011;8034;51.442;-0.522;2022-08-21T23:45:54;75.23;;;70.33;;
15869;SDS011;8034;51.442;-0.522;2022-08-21T23:48:24;74.80;;;70.00;;
15869;SDS011;8034;51.442;-0.522;2022-08-21T23:50:56;75.03;;;70.00;;
15869;SDS011;8034;51.442;-0.522;2022-08-21T23:53:57;76.07;;;71.17;;
15869;SDS011;8034;51.442;-0.522;2022-08-21T23:56:32;76.77;;;71.93;;
15869;SDS011;8034;51.442;-0.522;2022-08-21T23:59:08;78.20;;;73.10;;
